createdAt,value
2019-02-12T00:02:05.946Z,1.83
2019-02-12T00:04:33.150Z,1.67
2019-02-12T00:07:00.310Z,1.70
2019-02-12T00:09:27.495Z,1.70
2019-02-12T00:11:54.774Z,1.90
2019-02-12T00:14:21.957Z,2.30
2019-02-12T00:16:49.207Z,1.67
2019-02-12T00:19:16.454Z,2.03
2019-02-12T00:21:43.625Z,1.20
2019-02-12T00:24:10.801Z,1.73
2019-02-12T00:26:38.060Z,1.70
2019-02-12T00:29:05.240Z,1.70
2019-02-12T00:31:32.439Z,1.93
2019-02-12T00:33:59.678Z,1.50
2019-02-12T00:36:26.859Z,1.60
2019-02-12T00:38:54.056Z,3.60
2019-02-12T00:41:21.227Z,2.57
2019-02-12T00:43:48.424Z,2.20
2019-02-12T00:46:15.690Z,2.00
2019-02-12T00:48:42.958Z,2.80
2019-02-12T00:51:17.614Z,1.73
2019-02-12T00:53:39.034Z,1.90
2019-02-12T00:56:06.222Z,1.80
2019-02-12T00:58:33.397Z,2.20
2019-02-12T01:01:00.564Z,1.37
2019-02-12T01:03:27.768Z,1.63
2019-02-12T01:05:54.947Z,1.63
2019-02-12T01:08:22.116Z,1.77
2019-02-12T01:10:49.290Z,1.33
2019-02-12T01:13:16.477Z,1.60
2019-02-12T01:15:43.652Z,1.80
2019-02-12T01:18:10.819Z,1.90
2019-02-12T01:20:38.002Z,1.27
2019-02-12T01:23:05.226Z,1.97
2019-02-12T01:25:32.395Z,1.53
2019-02-12T01:27:59.566Z,1.90
2019-02-12T01:30:26.738Z,1.57
2019-02-12T01:32:53.929Z,1.70
2019-02-12T01:35:21.146Z,1.47
2019-02-12T01:37:48.343Z,1.70
2019-02-12T01:40:15.532Z,1.30
2019-02-12T01:42:42.806Z,1.60
2019-02-12T01:45:11.423Z,1.40
2019-02-12T01:47:38.585Z,1.60
2019-02-12T01:50:07.344Z,1.50
2019-02-12T01:52:34.550Z,1.73
2019-02-12T01:55:01.740Z,1.70
2019-02-12T01:57:28.989Z,1.70
2019-02-12T01:59:56.160Z,1.37
2019-02-12T02:02:23.323Z,1.60
2019-02-12T02:04:50.489Z,2.03
2019-02-12T02:07:17.677Z,1.30
2019-02-12T02:09:44.846Z,1.50
2019-02-12T02:12:12.007Z,1.20
2019-02-12T02:14:39.214Z,1.40
2019-02-12T02:17:06.401Z,2.20
2019-02-12T02:19:33.640Z,1.40
2019-02-12T02:22:00.818Z,1.77
2019-02-12T02:24:27.981Z,2.03
2019-02-12T02:26:55.946Z,1.63
2019-02-12T02:29:23.107Z,1.30
2019-02-12T02:31:50.286Z,1.63
2019-02-12T02:34:17.461Z,1.60
2019-02-12T02:36:44.640Z,1.67
2019-02-12T02:39:11.839Z,1.83
2019-02-12T02:41:39.002Z,1.80
2019-02-12T02:44:06.203Z,1.87
2019-02-12T02:46:33.381Z,1.23
2019-02-12T02:49:00.650Z,1.57
2019-02-12T02:51:27.814Z,2.33
2019-02-12T02:53:54.993Z,1.60
2019-02-12T02:56:22.191Z,1.73
2019-02-12T02:58:49.370Z,1.80
2019-02-12T03:01:16.540Z,1.60
2019-02-12T03:03:43.740Z,1.70
2019-02-12T03:06:10.911Z,1.50
2019-02-12T03:08:38.078Z,1.50
2019-02-12T03:11:05.250Z,2.13
2019-02-12T03:13:32.435Z,1.57
2019-02-12T03:15:59.610Z,1.63
2019-02-12T03:18:26.807Z,1.10
2019-02-12T03:20:54.008Z,1.70
2019-02-12T03:23:21.251Z,1.80
2019-02-12T03:25:48.421Z,2.40
2019-02-12T03:28:15.624Z,1.40
2019-02-12T03:30:42.816Z,3.20
2019-02-12T03:33:10.005Z,1.43
2019-02-12T03:35:37.187Z,1.90
2019-02-12T03:38:04.385Z,1.97
2019-02-12T03:40:31.648Z,1.80
2019-02-12T03:42:58.863Z,1.27
2019-02-12T03:45:26.023Z,1.47
2019-02-12T03:47:53.223Z,1.13
2019-02-12T03:50:20.455Z,1.40
2019-02-12T03:52:47.653Z,2.00
2019-02-12T03:55:14.823Z,1.20
2019-02-12T03:57:42.024Z,1.23
2019-02-12T04:00:10.898Z,1.30
2019-02-12T04:02:38.547Z,1.57
2019-02-12T04:05:06.871Z,1.13
2019-02-12T04:07:34.042Z,1.37
2019-02-12T04:10:01.244Z,1.53
2019-02-12T04:12:28.406Z,1.33
2019-02-12T04:14:55.578Z,1.57
2019-02-12T04:17:22.769Z,1.80
2019-02-12T04:19:49.937Z,1.47
2019-02-12T04:22:22.608Z,1.30
2019-02-12T04:24:46.007Z,2.23
2019-02-12T04:27:13.209Z,1.43
2019-02-12T04:29:40.439Z,1.50
2019-02-12T04:32:07.643Z,1.53
2019-02-12T04:34:34.904Z,1.23
2019-02-12T04:37:02.067Z,1.37
2019-02-12T04:39:29.243Z,1.47
2019-02-12T04:41:56.448Z,3.63
2019-02-12T04:44:23.682Z,1.93
2019-02-12T04:46:50.838Z,1.60
2019-02-12T04:49:19.750Z,1.30
2019-02-12T04:51:47.011Z,1.60
2019-02-12T04:54:14.275Z,1.37
2019-02-12T04:56:41.434Z,2.03
2019-02-12T04:59:08.636Z,1.33
2019-02-12T05:01:36.375Z,1.43
2019-02-12T05:04:03.557Z,1.30
2019-02-12T05:06:30.809Z,1.63
2019-02-12T05:09:14.822Z,1.30
2019-02-12T05:11:43.673Z,1.00
2019-02-12T05:14:10.941Z,1.77
2019-02-12T05:16:38.093Z,1.03
2019-02-12T05:19:05.275Z,0.90
2019-02-12T05:21:32.545Z,2.33
2019-02-12T05:23:59.712Z,1.37
2019-02-12T05:26:26.873Z,1.40
2019-02-12T05:28:54.060Z,2.03
2019-02-12T05:31:21.252Z,1.43
2019-02-12T05:33:48.495Z,1.60
2019-02-12T05:36:15.693Z,1.53
2019-02-12T05:38:42.876Z,1.53
2019-02-12T05:41:11.242Z,1.27
2019-02-12T05:43:38.698Z,1.33
2019-02-12T05:46:05.899Z,1.33
2019-02-12T05:48:33.147Z,1.43
2019-02-12T05:51:00.320Z,1.40
2019-02-12T05:53:27.584Z,1.30
2019-02-12T05:55:54.754Z,1.40
2019-02-12T05:58:21.926Z,1.30
2019-02-12T06:00:49.109Z,1.30
2019-02-12T06:03:16.293Z,1.70
2019-02-12T06:05:43.518Z,1.80
2019-02-12T06:08:10.724Z,1.50
2019-02-12T06:10:37.915Z,2.03
2019-02-12T06:13:05.090Z,1.50
2019-02-12T06:15:32.277Z,1.37
2019-02-12T06:17:59.438Z,1.30
2019-02-12T06:20:26.611Z,1.17
2019-02-12T06:23:03.099Z,1.73
2019-02-12T06:25:23.616Z,1.47
2019-02-12T06:27:50.866Z,1.17
2019-02-12T06:30:18.063Z,3.10
2019-02-12T06:32:45.271Z,1.40
2019-02-12T06:35:12.460Z,1.53
2019-02-12T06:37:39.703Z,2.07
2019-02-12T06:40:08.593Z,1.57
2019-02-12T06:42:35.764Z,1.50
2019-02-12T06:45:03.110Z,1.40
2019-02-12T06:47:30.311Z,1.90
2019-02-12T06:49:57.491Z,1.30
2019-02-12T06:52:24.673Z,1.40
2019-02-12T06:54:51.866Z,1.30
2019-02-12T06:57:19.033Z,1.27
2019-02-12T06:59:46.213Z,1.50
2019-02-12T07:02:31.366Z,1.57
2019-02-12T07:04:58.550Z,3.33
2019-02-12T07:07:36.141Z,1.60
2019-02-12T07:10:04.385Z,3.23
2019-02-12T07:12:33.269Z,3.90
2019-02-12T07:15:02.161Z,1.50
2019-02-12T07:17:33.670Z,1.67
2019-02-12T07:20:05.376Z,1.50
2019-02-12T07:22:36.810Z,0.90
2019-02-12T07:25:08.516Z,1.40
2019-02-12T07:27:37.325Z,1.70
2019-02-12T07:30:06.142Z,1.83
2019-02-12T07:32:40.812Z,2.10
2019-02-12T07:35:24.593Z,1.50
2019-02-12T07:37:56.387Z,3.27
2019-02-12T07:40:25.195Z,1.90
2019-02-12T07:42:53.983Z,1.80
2019-02-12T07:45:28.519Z,1.80
2019-02-12T07:48:00.367Z,2.03
2019-02-12T07:50:38.268Z,1.90
2019-02-12T07:53:18.931Z,1.63
2019-02-12T07:55:47.741Z,1.83
2019-02-12T07:58:28.347Z,1.80
2019-02-12T08:01:03.313Z,1.83
2019-02-12T08:03:38.194Z,1.57
2019-02-12T08:06:09.888Z,3.17
2019-02-12T08:08:50.573Z,1.37
2019-02-12T08:11:19.461Z,1.33
2019-02-12T08:14:04.840Z,1.87
2019-02-12T08:16:36.682Z,1.20
2019-02-12T08:19:08.160Z,2.57
2019-02-12T08:21:53.352Z,1.30
2019-02-12T08:24:25.180Z,1.43
2019-02-12T08:26:59.916Z,1.57
2019-02-12T08:29:31.637Z,1.70
2019-02-12T08:32:00.426Z,1.47
2019-02-12T08:34:29.234Z,1.30
2019-02-12T08:37:03.946Z,1.73
2019-02-12T08:39:50.680Z,1.50
2019-02-12T08:42:22.373Z,1.20
2019-02-12T08:44:51.172Z,1.27
2019-02-12T08:47:32.169Z,1.97
2019-02-12T08:50:19.027Z,1.50
2019-02-12T08:52:53.650Z,1.40
2019-02-12T08:55:25.474Z,2.67
2019-02-12T08:57:54.263Z,1.30
2019-02-12T09:00:23.078Z,1.83
2019-02-12T09:02:51.862Z,2.20
2019-02-12T09:05:20.678Z,2.70
2019-02-12T09:07:52.126Z,1.83
2019-02-12T09:10:29.703Z,1.60
2019-02-12T09:12:58.586Z,1.53
2019-02-12T09:15:33.195Z,1.40
2019-02-12T09:18:12.831Z,1.63
2019-02-12T09:20:46.847Z,1.63
2019-02-12T09:23:35.064Z,2.13
2019-02-12T09:26:09.698Z,1.40
2019-02-12T09:28:38.528Z,1.90
2019-02-12T09:31:22.179Z,1.73
2019-02-12T09:33:50.992Z,1.80
2019-02-12T09:36:19.857Z,1.73
2019-02-12T09:38:51.306Z,1.43
2019-02-12T09:41:22.757Z,2.00
2019-02-12T09:44:07.971Z,1.37
2019-02-12T09:46:45.656Z,1.77
2019-02-12T09:49:17.115Z,1.63
2019-02-12T09:52:01.156Z,2.07
2019-02-12T09:54:29.965Z,2.00
2019-02-12T09:57:15.203Z,1.57
2019-02-12T09:59:53.026Z,1.30
2019-02-12T10:02:30.543Z,1.50
2019-02-12T10:05:15.923Z,1.60
2019-02-12T10:07:44.737Z,1.37
2019-02-12T10:10:29.525Z,1.70
2019-02-12T10:13:01.137Z,2.20
2019-02-12T10:15:29.939Z,1.37
2019-02-12T10:18:04.425Z,1.37
2019-02-12T10:20:45.381Z,1.40
2019-02-12T10:23:14.195Z,1.40
2019-02-12T10:25:42.056Z,1.50
2019-02-12T10:28:19.578Z,2.37
2019-02-12T10:30:54.064Z,1.43
2019-02-12T10:33:21.250Z,1.37
2019-02-12T10:35:48.488Z,1.33
2019-02-12T10:38:15.696Z,2.00
2019-02-12T10:40:42.934Z,1.73
2019-02-12T10:43:10.116Z,1.67
2019-02-12T10:45:37.293Z,0.90
2019-02-12T10:48:04.471Z,1.37
2019-02-12T10:50:31.654Z,1.17
2019-02-12T10:52:58.822Z,1.90
2019-02-12T10:55:26.001Z,1.70
2019-02-12T10:57:53.165Z,1.33
2019-02-12T11:00:20.341Z,1.53
2019-02-12T11:02:47.510Z,1.60
2019-02-12T11:05:14.688Z,1.67
2019-02-12T11:07:41.852Z,1.23
2019-02-12T11:10:09.822Z,1.20
2019-02-12T11:12:36.984Z,0.97
2019-02-12T11:15:08.844Z,1.33
2019-02-12T11:17:36.206Z,1.10
2019-02-12T11:20:04.525Z,1.40
2019-02-12T11:22:31.724Z,1.40
2019-02-12T11:24:58.898Z,2.47
2019-02-12T11:27:26.667Z,1.43
2019-02-12T11:29:53.846Z,1.40
2019-02-12T11:32:21.030Z,1.30
2019-02-12T11:34:48.208Z,1.47
2019-02-12T11:37:15.469Z,1.20
2019-02-12T11:39:42.650Z,0.90
2019-02-12T11:42:09.827Z,1.33
2019-02-12T11:44:36.994Z,2.33
2019-02-12T11:47:04.185Z,2.10
2019-02-12T11:49:31.357Z,1.63
2019-02-12T11:51:59.779Z,1.00
2019-02-12T11:54:27.441Z,1.67
2019-02-12T11:56:54.668Z,1.30
2019-02-12T11:59:21.847Z,1.23
2019-02-12T12:01:49.030Z,1.00
2019-02-12T12:04:16.262Z,1.10
2019-02-12T12:06:43.439Z,1.50
2019-02-12T12:09:10.609Z,1.30
2019-02-12T12:11:37.774Z,1.57
2019-02-12T12:14:04.957Z,1.77
2019-02-12T12:16:32.122Z,1.57
2019-02-12T12:18:59.287Z,1.23
2019-02-12T12:21:26.467Z,1.10
2019-02-12T12:23:53.632Z,1.20
2019-02-12T12:26:20.829Z,1.70
2019-02-12T12:28:48.001Z,1.33
2019-02-12T12:31:15.164Z,1.40
2019-02-12T12:33:42.873Z,2.00
2019-02-12T12:36:10.043Z,1.23
2019-02-12T12:38:37.236Z,1.50
2019-02-12T12:41:04.399Z,1.50
2019-02-12T12:43:31.584Z,1.30
2019-02-12T12:45:58.765Z,2.20
2019-02-12T12:48:25.952Z,1.30
2019-02-12T12:50:53.183Z,1.43
2019-02-12T12:53:20.375Z,1.40
2019-02-12T12:55:47.545Z,1.70
2019-02-12T12:58:14.724Z,1.27
2019-02-12T13:00:41.897Z,1.30
2019-02-12T13:03:09.074Z,1.90
2019-02-12T13:05:36.269Z,1.57
2019-02-12T13:08:03.434Z,2.23
2019-02-12T13:10:30.599Z,2.07
2019-02-12T13:12:57.793Z,1.40
2019-02-12T13:15:24.974Z,0.97
2019-02-12T13:17:52.146Z,1.50
2019-02-12T13:20:20.094Z,1.60
2019-02-12T13:22:47.261Z,2.00
2019-02-12T13:25:14.445Z,2.20
2019-02-12T13:27:41.657Z,1.23
2019-02-12T13:30:18.941Z,1.97
2019-02-12T13:32:46.107Z,1.57
2019-02-12T13:35:13.269Z,1.80
2019-02-12T13:37:40.463Z,1.93
2019-02-12T13:40:09.507Z,1.57
2019-02-12T13:42:36.790Z,1.67
2019-02-12T13:45:05.658Z,1.30
2019-02-12T13:47:32.854Z,1.50
2019-02-12T13:50:00.046Z,2.13
2019-02-12T13:52:27.289Z,1.20
2019-02-12T13:54:54.468Z,1.20
2019-02-12T13:57:21.626Z,1.10
2019-02-12T13:59:48.810Z,1.30
2019-02-12T14:02:15.978Z,1.60
2019-02-12T14:04:43.197Z,1.60
2019-02-12T14:07:10.358Z,1.33
2019-02-12T14:09:37.518Z,1.40
2019-02-12T14:12:04.708Z,1.87
2019-02-12T14:14:31.863Z,1.53
2019-02-12T14:16:59.050Z,1.30
2019-02-12T14:19:26.227Z,2.20
2019-02-12T14:21:53.389Z,2.33
2019-02-12T14:24:20.591Z,1.30
2019-02-12T14:26:47.754Z,1.10
2019-02-12T14:29:14.936Z,2.10
2019-02-12T14:31:42.185Z,1.30
2019-02-12T14:34:09.350Z,1.57
2019-02-12T14:36:36.530Z,2.13
2019-02-12T14:39:05.323Z,2.07
2019-02-12T14:41:32.790Z,1.30
2019-02-12T14:43:59.971Z,1.60
2019-02-12T14:46:27.155Z,1.43
2019-02-12T14:48:54.336Z,1.40
2019-02-12T14:51:21.502Z,1.43
2019-02-12T14:53:48.672Z,1.50
2019-02-12T14:56:15.843Z,1.43
2019-02-12T14:58:43.023Z,1.50
2019-02-12T15:01:10.220Z,0.83
2019-02-12T15:03:37.387Z,1.20
2019-02-12T15:06:04.555Z,2.23
2019-02-12T15:08:31.738Z,1.40
2019-02-12T15:10:58.901Z,1.40
2019-02-12T15:13:26.086Z,1.40
2019-02-12T15:15:53.274Z,2.13
2019-02-12T15:18:20.443Z,2.03
2019-02-12T15:20:47.609Z,1.40
2019-02-12T15:23:14.802Z,1.53
2019-02-12T15:25:42.265Z,1.13
2019-02-12T15:28:09.976Z,2.83
2019-02-12T15:30:37.128Z,2.10
2019-02-12T15:33:04.351Z,1.90
2019-02-12T15:35:31.613Z,1.50
2019-02-12T15:37:58.789Z,1.53
2019-02-12T15:40:25.963Z,1.30
2019-02-12T15:42:53.147Z,1.40
2019-02-12T15:45:21.660Z,1.60
2019-02-12T15:47:48.838Z,1.60
2019-02-12T15:50:16.004Z,0.90
2019-02-12T15:52:43.174Z,2.13
2019-02-12T15:55:11.414Z,1.53
2019-02-12T15:57:40.288Z,1.40
2019-02-12T16:00:15.742Z,1.93
2019-02-12T16:02:43.419Z,1.20
2019-02-12T16:05:12.448Z,1.27
2019-02-12T16:07:39.909Z,1.43
2019-02-12T16:10:08.719Z,1.90
2019-02-12T16:12:35.886Z,1.70
2019-02-12T16:15:03.364Z,1.90
2019-02-12T16:17:30.524Z,2.07
2019-02-12T16:19:57.691Z,1.47
2019-02-12T16:22:24.868Z,1.43
2019-02-12T16:24:52.050Z,1.33
2019-02-12T16:27:19.234Z,2.00
2019-02-12T16:29:46.401Z,1.57
2019-02-12T16:32:13.578Z,1.60
2019-02-12T16:34:40.750Z,2.67
2019-02-12T16:37:07.963Z,1.57
2019-02-12T16:39:35.142Z,1.67
2019-02-12T16:42:02.343Z,1.87
2019-02-12T16:44:29.510Z,1.90
2019-02-12T16:46:56.775Z,1.60
2019-02-12T16:49:25.656Z,2.17
2019-02-12T16:51:52.850Z,1.50
2019-02-12T16:54:20.027Z,1.50
2019-02-12T16:56:47.224Z,2.20
2019-02-12T16:59:14.414Z,1.60
2019-02-12T17:01:41.647Z,1.80
2019-02-12T17:04:09.033Z,1.70
2019-02-12T17:06:36.204Z,1.53
2019-02-12T17:09:04.846Z,1.93
2019-02-12T17:11:32.031Z,1.77
2019-02-12T17:13:59.657Z,1.83
2019-02-12T17:16:26.841Z,1.73
2019-02-12T17:18:54.032Z,2.20
2019-02-12T17:21:21.196Z,1.43
2019-02-12T17:23:48.368Z,1.43
2019-02-12T17:26:16.674Z,1.50
2019-02-12T17:28:44.090Z,1.70
2019-02-12T17:31:11.269Z,2.20
2019-02-12T17:33:38.473Z,1.80
2019-02-12T17:36:05.669Z,1.80
2019-02-12T17:38:32.896Z,1.67
2019-02-12T17:41:00.094Z,1.77
2019-02-12T17:43:27.268Z,1.83
2019-02-12T17:45:54.447Z,1.80
2019-02-12T17:48:21.717Z,2.00
2019-02-12T17:50:48.898Z,2.57
2019-02-12T17:53:16.062Z,1.87
2019-02-12T17:55:43.258Z,1.80
2019-02-12T17:58:10.467Z,1.77
2019-02-12T18:00:39.699Z,2.10
2019-02-12T18:03:06.946Z,2.20
2019-02-12T18:05:34.102Z,2.20
2019-02-12T18:08:01.298Z,1.93
2019-02-12T18:10:28.466Z,1.83
2019-02-12T18:12:55.638Z,1.93
2019-02-12T18:15:22.819Z,1.70
2019-02-12T18:17:49.999Z,1.80
2019-02-12T18:20:26.101Z,2.13
2019-02-12T18:22:46.626Z,2.57
2019-02-12T18:25:13.826Z,2.23
2019-02-12T18:27:41.001Z,2.93
2019-02-12T18:30:09.834Z,2.70
2019-02-12T18:32:36.999Z,2.30
2019-02-12T18:35:04.948Z,2.37
2019-02-12T18:37:32.202Z,2.30
2019-02-12T18:39:59.408Z,2.43
2019-02-12T18:42:26.587Z,2.30
2019-02-12T18:44:53.755Z,3.00
2019-02-12T18:47:20.945Z,2.40
2019-02-12T18:49:48.128Z,3.77
2019-02-12T18:52:15.332Z,2.10
2019-02-12T18:54:42.513Z,2.50
2019-02-12T18:57:09.687Z,3.17
2019-02-12T18:59:36.882Z,3.50
2019-02-12T19:02:04.129Z,2.60
2019-02-12T19:04:31.307Z,2.60
2019-02-12T19:06:58.482Z,3.23
2019-02-12T19:09:25.671Z,3.10
2019-02-12T19:11:54.505Z,3.90
2019-02-12T19:14:21.997Z,2.50
2019-02-12T19:16:49.163Z,3.20
2019-02-12T19:19:16.365Z,3.93
2019-02-12T19:21:43.557Z,4.20
2019-02-12T19:24:10.830Z,2.60
2019-02-12T19:26:38.028Z,3.53
2019-02-12T19:29:05.218Z,2.73
2019-02-12T19:31:32.417Z,2.77
2019-02-12T19:33:59.670Z,3.37
2019-02-12T19:36:26.964Z,2.43
2019-02-12T19:38:54.220Z,3.37
2019-02-12T19:41:21.411Z,2.60
2019-02-12T19:43:48.603Z,2.63
2019-02-12T19:46:15.774Z,2.63
2019-02-12T19:48:42.974Z,2.87
2019-02-12T19:51:10.162Z,2.77
2019-02-12T19:53:37.362Z,2.20
2019-02-12T19:56:04.693Z,2.60
2019-02-12T19:58:31.951Z,2.23
2019-02-12T20:00:59.320Z,2.07
2019-02-12T20:03:26.522Z,2.13
2019-02-12T20:05:53.737Z,3.00
2019-02-12T20:08:21.006Z,2.57
2019-02-12T20:10:48.216Z,2.27
2019-02-12T20:13:15.463Z,2.00
2019-02-12T20:15:42.753Z,2.50
2019-02-12T20:18:09.983Z,2.23
2019-02-12T20:20:37.204Z,2.40
2019-02-12T20:23:04.471Z,2.30
2019-02-12T20:25:31.739Z,2.10
2019-02-12T20:27:58.967Z,1.97
2019-02-12T20:30:26.438Z,2.13
2019-02-12T20:32:53.689Z,2.30
2019-02-12T20:35:22.120Z,2.20
2019-02-12T20:37:49.495Z,3.73
2019-02-12T20:40:16.684Z,3.33
2019-02-12T20:42:43.887Z,3.43
2019-02-12T20:45:12.747Z,4.30
2019-02-12T20:47:39.955Z,2.10
2019-02-12T20:50:08.568Z,4.80
2019-02-12T20:52:35.820Z,2.57
2019-02-12T20:55:03.012Z,3.57
2019-02-12T20:57:30.288Z,2.73
2019-02-12T20:59:57.478Z,1.90
2019-02-12T21:02:24.664Z,3.23
2019-02-12T21:04:51.852Z,2.80
2019-02-12T21:07:19.151Z,3.23
2019-02-12T21:09:46.420Z,2.30
2019-02-12T21:12:13.605Z,2.53
2019-02-12T21:14:40.870Z,2.50
2019-02-12T21:17:08.167Z,2.40
2019-02-12T21:19:35.478Z,2.20
2019-02-12T21:22:02.755Z,2.37
2019-02-12T21:24:30.026Z,2.67
2019-02-12T21:26:57.277Z,2.07
2019-02-12T21:29:24.484Z,2.37
2019-02-12T21:31:51.680Z,2.30
2019-02-12T21:34:18.973Z,2.17
2019-02-12T21:36:46.255Z,2.63
2019-02-12T21:39:15.079Z,2.33
2019-02-12T21:41:42.276Z,2.53
2019-02-12T21:44:09.528Z,2.00
2019-02-12T21:46:36.714Z,2.67
2019-02-12T21:49:03.913Z,2.87
2019-02-12T21:51:31.166Z,2.60
2019-02-12T21:53:58.349Z,2.60
2019-02-12T21:56:25.547Z,2.90
2019-02-12T21:58:52.721Z,2.33
2019-02-12T22:01:19.940Z,2.53
2019-02-12T22:03:47.134Z,2.43
2019-02-12T22:06:14.324Z,3.50
2019-02-12T22:08:41.528Z,2.50
2019-02-12T22:11:08.848Z,2.93
2019-02-12T22:13:36.104Z,2.47
2019-02-12T22:16:03.368Z,2.93
2019-02-12T22:18:30.558Z,2.60
2019-02-12T22:20:57.750Z,4.23
2019-02-12T22:23:24.941Z,3.47
2019-02-12T22:25:52.218Z,2.50
2019-02-12T22:28:19.840Z,3.30
2019-02-12T22:30:47.085Z,2.60
2019-02-12T22:33:14.300Z,3.30
2019-02-12T22:35:41.554Z,2.80
2019-02-12T22:38:08.819Z,3.13
2019-02-12T22:40:36.009Z,4.27
2019-02-12T22:43:03.197Z,3.23
2019-02-12T22:45:30.446Z,3.33
2019-02-12T22:47:57.711Z,3.50
2019-02-12T22:50:24.886Z,4.27
2019-02-12T22:52:52.079Z,3.57
2019-02-12T22:55:19.268Z,4.30
2019-02-12T22:57:49.324Z,3.57
2019-02-12T23:00:19.643Z,3.23
2019-02-12T23:02:46.816Z,3.90
2019-02-12T23:05:14.069Z,5.70
2019-02-12T23:07:41.243Z,3.83
2019-02-12T23:10:09.005Z,4.33
2019-02-12T23:12:36.185Z,5.07
2019-02-12T23:15:04.783Z,5.33
2019-02-12T23:17:32.022Z,5.50
2019-02-12T23:19:59.283Z,5.00
2019-02-12T23:22:26.450Z,5.53
2019-02-12T23:24:53.630Z,5.97
2019-02-12T23:27:20.818Z,5.97
2019-02-12T23:29:48.178Z,7.50
2019-02-12T23:32:15.373Z,6.50
2019-02-12T23:34:42.565Z,6.30
2019-02-12T23:37:09.758Z,6.27
2019-02-12T23:39:36.956Z,7.77
2019-02-12T23:42:04.131Z,6.73
2019-02-12T23:44:31.314Z,7.40
2019-02-12T23:46:58.503Z,7.33
2019-02-12T23:49:25.756Z,8.90
2019-02-12T23:51:52.942Z,9.43
2019-02-12T23:54:20.127Z,9.27
2019-02-12T23:56:47.321Z,9.17
2019-02-12T23:59:14.500Z,8.50
